Airfield :
LOGIN :

Register | Disclaimer

   EN    FR    IT 

 










Legend :    VFR   Marginal VFR   IFR   Intensive IFR   Very Intensive IFR
Visi :
Ceiling :
>= 8 km
>= 3000ft
5 to 8 km
1000 to 3000 ft
1500m to 5 km
500 to 1000 ft
800 to 1500m
200 to 500 ft
< 800m
< 200 ft
Symbols :   Thunderstorms  Fog  Heavy snow  Heavy precipitations  Wind > 20 kt
SIGMETs :     Misc.  Thunderstorms  Icing  Turbulence  Mountain Waves  Volcanic Ashes






- Airport Elevation : 499 ft
- IATA code : TLS


LFBO - Toulouse / Blagnac

CURRENT METAR :
  • 311500Z AUTO 29023G34KT 9999 FEW047 BKN080 17/07 Q1017 TEMPO 4000 SHRA BKN020 FEW030CB

EXPIRED METARs :
  • 311430Z AUTO 28021KT 9999 SCT049 BKN064 BKN074 17/08 Q1017 TEMPO 27022G35KT 4000 SHRA BKN020 FEW030CB
  • 311400Z AUTO 28019G30KT 9999 SCT043 SCT052 BKN066 17/08 Q1017 TEMPO SCT025TCU
  • 311330Z AUTO 27017KT 9999 BKN043 BKN050 OVC064 15/08 Q1017 TEMPO 27015G25KT SCT025TCU
  • 311300Z AUTO 29020KT 9999 BKN040 BKN048 OVC064 16/07 Q1017 TEMPO 27015G25KT SCT025TCU
  • 311230Z AUTO 28018KT 9999 BKN040 BKN047 OVC062 16/08 Q1017 TEMPO 27015G25KT SCT025TCU

TAF TAF LFBO
Valid from the 31 at 12:00 until the 01 at 18:00 UTC


311100Z 3112/0118 27014KT 9999 SCT035 BKN055
TEMPO 3112/3118 27015G25KT SCT025TCU
PROB30
TEMPO 3116/3118 27022G35KT 4000 SHRA BKN020 FEW030CB
BECMG 0108/0110 SCT020TCU BKN050
PROB40
TEMPO 0108/0112 27015G25KT 4000 SHRA BKN020 FEW025CB
TEMPO 0112/0118 28018G28KT 4000 SHRA SCT028CB
PROB30
TEMPO 0115/0118 -TSRA
ATIS : +33 5 62 74 66 36



MET'MAP, your aeronautical weather chart ! - Copyright ORBIFLY December 2007 - Disclaimer

ORBIFLY MET'MAP TEAM :

Programming & Development : Alexandra Zaïnal
Original concept : Baudouin d'Aumeries
Technical & hardware support : Manuel Goepfert
Assistance : Marc-Olivier Méhu




SOURCES & CREDITS :

   NOAA